createdAt,value
2023-08-19T00:00:23.704Z,19.30
2023-08-19T00:02:52.849Z,19.30
2023-08-19T00:05:20.058Z,19.30
2023-08-19T00:07:48.232Z,19.30
2023-08-19T00:10:15.425Z,19.30
2023-08-19T00:12:42.816Z,19.30
2023-08-19T00:15:10.734Z,19.30
2023-08-19T00:17:38.274Z,19.30
2023-08-19T00:20:07.403Z,19.30
2023-08-19T00:22:34.739Z,19.20
2023-08-19T00:25:01.994Z,19.10
2023-08-19T00:27:29.462Z,19.10
2023-08-19T00:29:57.620Z,19.00
2023-08-19T00:32:24.891Z,19.00
2023-08-19T00:34:52.367Z,19.00
2023-08-19T00:37:21.341Z,19.00
2023-08-19T00:39:48.501Z,19.00
2023-08-19T00:42:16.359Z,19.00
2023-08-19T00:44:43.634Z,19.00
2023-08-19T00:47:11.022Z,19.00
2023-08-19T00:49:38.206Z,19.00
2023-08-19T00:52:05.849Z,19.00
2023-08-19T00:54:33.756Z,19.00
2023-08-19T00:57:02.239Z,19.00
2023-08-19T00:59:29.741Z,18.90
2023-08-19T01:01:57.047Z,19.00
2023-08-19T01:04:25.193Z,18.90
2023-08-19T01:07:09.265Z,18.90
2023-08-19T01:09:50.853Z,18.90
2023-08-19T01:12:50.257Z,18.90
2023-08-19T01:15:29.055Z,18.90
2023-08-19T01:17:58.160Z,18.90
2023-08-19T01:20:32.735Z,18.90
2023-08-19T01:23:16.130Z,18.90
2023-08-19T01:25:45.459Z,18.90
2023-08-19T01:28:15.234Z,18.90
2023-08-19T01:30:42.606Z,18.90
2023-08-19T01:33:10.617Z,18.80
2023-08-19T01:35:44.753Z,18.90
2023-08-19T01:38:42.814Z,18.90
2023-08-19T01:41:12.055Z,18.90
2023-08-19T01:43:41.477Z,18.90
2023-08-19T01:46:09.013Z,18.90
2023-08-19T01:48:36.286Z,18.90
2023-08-19T01:51:04.003Z,18.90
2023-08-19T01:53:31.432Z,18.90
2023-08-19T01:55:58.649Z,18.90
2023-08-19T01:58:25.898Z,18.90
2023-08-19T02:00:53.194Z,18.90
2023-08-19T02:03:22.440Z,18.90
2023-08-19T02:05:50.653Z,18.90
2023-08-19T02:08:18.036Z,18.90
2023-08-19T02:10:45.335Z,18.90
2023-08-19T02:13:12.815Z,18.90
2023-08-19T02:15:40.045Z,19.00
2023-08-19T02:18:07.424Z,19.10
2023-08-19T02:20:34.649Z,19.00
2023-08-19T02:23:02.725Z,19.00
2023-08-19T02:25:29.947Z,19.00
2023-08-19T02:27:57.258Z,19.00
2023-08-19T02:30:24.489Z,19.00
2023-08-19T02:32:54.299Z,19.10
2023-08-19T02:35:22.285Z,18.90
2023-08-19T02:37:50.996Z,18.90
2023-08-19T02:40:18.358Z,18.90
2023-08-19T02:42:45.672Z,18.90
2023-08-19T02:45:12.950Z,18.90
2023-08-19T02:47:40.177Z,18.90
2023-08-19T02:50:08.225Z,18.90
2023-08-19T02:52:35.501Z,18.90
2023-08-19T02:55:02.889Z,18.90
2023-08-19T02:57:30.498Z,19.10
2023-08-19T02:59:57.984Z,18.80
2023-08-19T03:02:25.445Z,18.90
2023-08-19T03:04:52.668Z,18.90
2023-08-19T03:07:20.012Z,18.90
2023-08-19T03:09:47.410Z,18.90
2023-08-19T03:12:14.650Z,18.80
2023-08-19T03:14:42.288Z,18.80
2023-08-19T03:17:09.452Z,18.90
2023-08-19T03:19:37.554Z,18.90
2023-08-19T03:22:05.035Z,18.90
2023-08-19T03:24:32.484Z,18.90
2023-08-19T03:26:59.790Z,19.00
2023-08-19T03:29:27.391Z,19.00
2023-08-19T03:31:55.399Z,19.00
2023-08-19T03:34:23.637Z,19.00
2023-08-19T03:36:51.765Z,19.00
2023-08-19T03:39:18.967Z,18.90
2023-08-19T03:41:46.398Z,18.90
2023-08-19T03:44:20.985Z,18.90
2023-08-19T03:46:48.124Z,18.90
2023-08-19T03:49:16.798Z,18.90
2023-08-19T03:51:44.017Z,19.00
2023-08-19T03:54:12.018Z,18.80
2023-08-19T03:56:39.315Z,18.80
2023-08-19T03:59:06.569Z,18.80
2023-08-19T04:01:34.074Z,18.80
2023-08-19T04:04:01.520Z,18.80
2023-08-19T04:06:28.808Z,18.80
2023-08-19T04:08:56.470Z,18.90
2023-08-19T04:11:24.168Z,18.90
2023-08-19T04:13:51.439Z,18.80
2023-08-19T04:16:20.303Z,18.80
2023-08-19T04:18:48.772Z,18.80
2023-08-19T04:21:16.068Z,18.80
2023-08-19T04:23:43.834Z,18.70
2023-08-19T04:26:11.177Z,18.70
2023-08-19T04:28:39.091Z,18.70
2023-08-19T04:31:08.888Z,18.70
2023-08-19T04:33:56.371Z,18.80
2023-08-19T04:36:23.881Z,18.70
2023-08-19T04:38:51.138Z,18.70
2023-08-19T04:41:19.225Z,18.70
2023-08-19T04:43:47.845Z,18.70
2023-08-19T04:46:16.682Z,18.70
2023-08-19T04:48:43.890Z,18.70
2023-08-19T04:51:11.288Z,18.80
2023-08-19T04:53:38.516Z,18.80
2023-08-19T04:56:05.796Z,18.80
2023-08-19T04:58:36.133Z,18.80
2023-08-19T05:01:03.938Z,18.80
2023-08-19T05:03:32.389Z,18.80
2023-08-19T05:06:00.297Z,18.80
2023-08-19T05:08:34.684Z,18.90
2023-08-19T05:11:02.379Z,18.90
2023-08-19T05:13:29.559Z,18.90
2023-08-19T05:16:00.919Z,18.90
2023-08-19T05:18:28.116Z,19.00
2023-08-19T05:20:55.292Z,18.90
2023-08-19T05:23:24.943Z,19.00
2023-08-19T05:25:52.311Z,18.90
2023-08-19T05:28:19.525Z,19.10
2023-08-19T05:30:46.755Z,19.10
2023-08-19T05:33:13.921Z,19.20
2023-08-19T05:35:41.386Z,19.20
2023-08-19T05:38:09.507Z,19.30
2023-08-19T05:40:36.677Z,19.40
2023-08-19T05:43:04.166Z,19.60
2023-08-19T05:45:34.841Z,19.70
2023-08-19T05:48:02.227Z,19.80
2023-08-19T05:50:29.580Z,20.00
2023-08-19T05:52:56.724Z,20.10
2023-08-19T05:55:23.913Z,20.20
2023-08-19T05:57:51.090Z,20.10
2023-08-19T06:00:18.272Z,20.10
2023-08-19T06:02:45.516Z,20.20
2023-08-19T06:05:12.771Z,20.30
2023-08-19T06:07:41.361Z,20.50
2023-08-19T06:10:08.862Z,20.60
2023-08-19T06:12:36.069Z,20.80
2023-08-19T06:15:03.827Z,21.00
2023-08-19T06:17:32.204Z,21.30
2023-08-19T06:19:59.870Z,21.60
2023-08-19T06:22:27.025Z,22.00
2023-08-19T06:24:54.140Z,22.10
2023-08-19T06:27:21.363Z,22.30
2023-08-19T06:29:48.550Z,22.40
2023-08-19T06:32:16.319Z,22.40
2023-08-19T06:34:43.802Z,22.30
2023-08-19T06:37:16.778Z,22.40
2023-08-19T06:39:49.734Z,22.40
2023-08-19T06:42:19.659Z,22.50
2023-08-19T06:44:50.456Z,22.50
2023-08-19T06:47:24.908Z,22.60
2023-08-19T06:49:52.810Z,22.80
2023-08-19T06:52:20.782Z,23.00
2023-08-19T06:54:49.255Z,23.40
2023-08-19T06:57:34.732Z,23.60
2023-08-19T07:00:11.601Z,23.80
2023-08-19T07:02:40.045Z,24.00
2023-08-19T07:05:15.547Z,24.30
2023-08-19T07:07:50.986Z,24.30
2023-08-19T07:10:20.652Z,24.30
2023-08-19T07:12:48.973Z,24.30
2023-08-19T07:15:17.016Z,24.40
2023-08-19T07:17:55.666Z,24.50
2023-08-19T07:20:24.337Z,24.60
2023-08-19T07:22:53.757Z,24.30
2023-08-19T07:25:21.304Z,24.30
2023-08-19T07:27:50.029Z,24.30
2023-08-19T07:30:18.703Z,24.70
2023-08-19T07:32:46.561Z,24.80
2023-08-19T07:37:56.573Z,24.90
2023-08-19T07:40:23.755Z,25.10
2023-08-19T07:42:51.041Z,25.00
2023-08-19T07:45:18.458Z,25.00
2023-08-19T07:47:45.923Z,25.30
2023-08-19T07:50:13.175Z,25.60
2023-08-19T07:52:40.542Z,26.00
2023-08-19T07:55:08.589Z,25.80
2023-08-19T07:57:35.933Z,25.60
2023-08-19T08:00:04.097Z,25.70
2023-08-19T08:02:39.963Z,25.70
2023-08-19T08:05:08.141Z,26.20
2023-08-19T08:07:35.584Z,26.40
2023-08-19T08:10:06.742Z,26.70
2023-08-19T08:12:34.016Z,26.90
2023-08-19T08:15:01.876Z,27.30
2023-08-19T08:17:29.333Z,27.20
2023-08-19T08:19:58.602Z,27.10
2023-08-19T08:22:28.775Z,27.20
2023-08-19T08:25:00.513Z,27.30
2023-08-19T08:27:27.882Z,27.40
2023-08-19T08:29:55.210Z,27.50
2023-08-19T08:32:23.020Z,27.40
2023-08-19T08:34:50.302Z,27.30
2023-08-19T08:37:17.760Z,27.60
2023-08-19T08:39:45.918Z,27.90
2023-08-19T08:42:13.695Z,26.60
2023-08-19T08:44:41.716Z,28.00
2023-08-19T08:47:10.133Z,28.10
2023-08-19T08:49:38.824Z,28.10
2023-08-19T08:52:09.597Z,28.00
2023-08-19T08:54:37.961Z,28.20
2023-08-19T08:57:05.728Z,28.60
2023-08-19T08:59:35.320Z,28.80
2023-08-19T09:02:04.785Z,28.90
2023-08-19T09:04:32.989Z,28.80
2023-08-19T09:07:14.333Z,28.80
2023-08-19T09:09:49.508Z,28.90
2023-08-19T09:12:17.122Z,29.10
2023-08-19T09:14:46.039Z,29.40
2023-08-19T09:17:15.419Z,29.70
2023-08-19T09:19:42.776Z,29.80
2023-08-19T09:22:30.326Z,29.70
2023-08-19T09:24:58.428Z,29.50
2023-08-19T09:27:28.869Z,29.20
2023-08-19T09:29:56.444Z,29.50
2023-08-19T09:32:37.481Z,29.70
2023-08-19T09:35:13.890Z,30.10
2023-08-19T09:37:42.239Z,30.00
2023-08-19T09:40:12.918Z,30.20
2023-08-19T09:42:42.016Z,29.90
2023-08-19T09:45:20.490Z,29.90
2023-08-19T09:47:50.872Z,29.70
2023-08-19T09:50:21.880Z,29.80
2023-08-19T09:53:00.207Z,30.10
2023-08-19T09:55:30.465Z,30.00
2023-08-19T09:57:58.042Z,30.20
2023-08-19T10:00:26.185Z,30.30
2023-08-19T10:02:53.407Z,30.60
2023-08-19T10:05:21.142Z,31.00
2023-08-19T10:08:05.457Z,31.20
2023-08-19T10:10:34.595Z,31.40
2023-08-19T10:13:03.425Z,31.60
2023-08-19T10:15:34.794Z,31.70
2023-08-19T10:18:12.011Z,31.80
2023-08-19T10:20:41.792Z,32.60
2023-08-19T10:23:11.382Z,33.10
2023-08-19T10:25:43.010Z,33.70
2023-08-19T10:28:36.585Z,33.30
2023-08-19T10:31:11.470Z,32.90
2023-08-19T10:33:47.418Z,33.20
2023-08-19T10:36:21.419Z,33.10
2023-08-19T10:38:49.447Z,33.60
2023-08-19T10:41:19.886Z,33.90
2023-08-19T10:44:03.803Z,34.30
2023-08-19T10:46:48.395Z,34.60
2023-08-19T10:49:24.745Z,34.00
2023-08-19T10:52:01.561Z,34.10
2023-08-19T10:54:41.987Z,34.50
2023-08-19T10:57:14.063Z,34.80
2023-08-19T10:59:47.042Z,34.60
2023-08-19T11:02:15.246Z,34.50
2023-08-19T11:04:48.006Z,34.60
2023-08-19T11:07:15.691Z,34.70
2023-08-19T11:09:48.821Z,35.20
2023-08-19T11:12:22.036Z,35.80
2023-08-19T11:14:53.784Z,36.30
2023-08-19T11:17:30.014Z,36.20
2023-08-19T11:19:59.474Z,36.20
2023-08-19T11:22:27.057Z,36.10
2023-08-19T11:24:54.292Z,36.20
2023-08-19T11:27:22.210Z,36.60
2023-08-19T11:29:49.514Z,36.90
2023-08-19T11:32:20.937Z,36.20
2023-08-19T11:34:48.339Z,36.20
2023-08-19T11:37:17.304Z,36.70
2023-08-19T11:39:46.613Z,37.20
2023-08-19T11:42:14.394Z,37.20
2023-08-19T11:44:45.220Z,36.30
2023-08-19T11:47:13.339Z,36.20
2023-08-19T11:49:44.039Z,36.50
2023-08-19T11:52:11.237Z,36.70
2023-08-19T11:54:38.404Z,35.60
2023-08-19T11:57:07.486Z,35.20
2023-08-19T11:59:36.100Z,35.80
2023-08-19T12:02:09.148Z,36.30
2023-08-19T12:04:36.537Z,37.40
2023-08-19T12:07:11.159Z,38.00
2023-08-19T12:09:39.296Z,38.90
2023-08-19T12:12:11.854Z,38.90
2023-08-19T12:14:40.467Z,38.90
2023-08-19T12:17:09.097Z,38.70
2023-08-19T12:19:39.400Z,38.50
2023-08-19T12:22:06.648Z,38.30
2023-08-19T12:24:33.945Z,37.40
2023-08-19T12:27:01.111Z,37.60
2023-08-19T12:29:28.621Z,38.50
2023-08-19T12:31:55.883Z,38.60
2023-08-19T12:34:23.226Z,39.00
2023-08-19T12:36:55.374Z,39.30
2023-08-19T12:39:25.103Z,39.40
2023-08-19T12:41:52.814Z,39.60
2023-08-19T12:44:20.241Z,39.60
2023-08-19T12:46:47.903Z,39.20
2023-08-19T12:49:15.248Z,37.70
2023-08-19T12:51:42.975Z,36.90
2023-08-19T12:54:10.352Z,36.60
2023-08-19T12:56:37.810Z,37.50
2023-08-19T12:59:05.537Z,37.80
2023-08-19T13:01:33.090Z,38.50
2023-08-19T13:04:01.398Z,38.60
2023-08-19T13:06:28.742Z,38.60
2023-08-19T13:08:56.651Z,39.10
2023-08-19T13:11:24.150Z,38.70
2023-08-19T13:13:51.389Z,38.70
2023-08-19T13:16:18.613Z,39.00
2023-08-19T13:18:45.896Z,38.70
2023-08-19T13:21:13.120Z,38.70
2023-08-19T13:23:42.848Z,39.50
2023-08-19T13:26:10.432Z,40.40
2023-08-19T13:28:37.745Z,41.20
2023-08-19T13:31:06.079Z,41.50
2023-08-19T13:33:33.467Z,41.50
2023-08-19T13:36:00.785Z,40.60
2023-08-19T13:38:28.131Z,40.10
2023-08-19T13:40:55.358Z,40.50
2023-08-19T13:43:22.612Z,40.10
2023-08-19T13:45:49.794Z,40.30
2023-08-19T13:48:17.161Z,40.60
2023-08-19T13:50:44.700Z,40.50
2023-08-19T13:53:11.944Z,40.80
2023-08-19T13:55:39.144Z,41.80
2023-08-19T13:58:06.348Z,40.80
2023-08-19T14:00:33.780Z,40.30
2023-08-19T14:03:01.177Z,40.00
2023-08-19T14:05:29.774Z,39.50
2023-08-19T14:07:56.983Z,38.20
2023-08-19T14:10:24.363Z,37.10
2023-08-19T14:12:51.608Z,35.60
2023-08-19T14:15:18.906Z,34.20
2023-08-19T14:17:46.577Z,33.30
2023-08-19T14:20:13.806Z,32.60
2023-08-19T14:22:41.543Z,32.30
2023-08-19T14:25:11.387Z,31.90
2023-08-19T14:27:39.691Z,31.60
2023-08-19T14:30:07.732Z,31.20
2023-08-19T14:32:35.046Z,31.10
2023-08-19T14:35:02.413Z,31.10
2023-08-19T14:37:29.574Z,31.00
2023-08-19T14:39:56.749Z,31.00
2023-08-19T14:42:24.197Z,31.00
2023-08-19T14:44:52.021Z,31.10
2023-08-19T14:47:19.355Z,31.10
2023-08-19T14:49:47.304Z,31.10
2023-08-19T14:52:19.043Z,31.10
2023-08-19T14:54:46.317Z,31.20
2023-08-19T14:57:13.536Z,31.30
2023-08-19T14:59:40.678Z,31.30
2023-08-19T15:02:08.829Z,31.40
2023-08-19T15:04:36.025Z,31.50
2023-08-19T15:07:03.970Z,31.50
2023-08-19T15:09:31.688Z,31.40
2023-08-19T15:11:58.886Z,31.40
2023-08-19T15:14:26.023Z,31.30
2023-08-19T15:16:55.246Z,31.30
2023-08-19T15:19:22.576Z,31.30
2023-08-19T15:21:49.913Z,31.30
2023-08-19T15:24:17.119Z,31.30
2023-08-19T15:26:44.243Z,31.30
2023-08-19T15:29:11.785Z,31.20
2023-08-19T15:31:38.999Z,30.70
2023-08-19T15:34:06.465Z,31.00
2023-08-19T15:36:33.976Z,31.00
2023-08-19T15:39:01.240Z,31.00
2023-08-19T15:41:30.860Z,31.00
2023-08-19T15:43:59.564Z,31.00
2023-08-19T15:46:26.658Z,30.90
2023-08-19T15:48:53.805Z,30.80
2023-08-19T15:51:30.720Z,30.70
2023-08-19T15:54:00.804Z,30.70
2023-08-19T15:56:27.917Z,30.60
2023-08-19T15:58:55.118Z,30.40
2023-08-19T16:01:22.350Z,30.70
2023-08-19T16:03:49.543Z,30.40
2023-08-19T16:06:17.941Z,30.40
2023-08-19T16:08:45.656Z,30.30
2023-08-19T16:11:12.869Z,30.20
2023-08-19T16:13:40.009Z,30.20
2023-08-19T16:16:07.134Z,30.20
2023-08-19T16:18:35.558Z,30.10
2023-08-19T16:21:06.198Z,30.10
2023-08-19T16:23:37.160Z,30.10
2023-08-19T16:26:05.602Z,30.10
2023-08-19T16:28:32.818Z,30.20
2023-08-19T16:31:04.294Z,30.20
2023-08-19T16:33:33.815Z,30.10
2023-08-19T16:36:01.882Z,30.10
2023-08-19T16:38:29.157Z,30.10
2023-08-19T16:40:56.416Z,29.90
2023-08-19T16:43:23.811Z,29.90
2023-08-19T16:45:58.842Z,29.80
2023-08-19T16:48:27.026Z,29.80
2023-08-19T16:50:54.742Z,29.70
2023-08-19T16:53:22.556Z,29.70
2023-08-19T16:56:00.954Z,29.70
2023-08-19T16:58:29.790Z,29.60
2023-08-19T17:00:59.904Z,29.60
2023-08-19T17:03:28.207Z,29.50
2023-08-19T17:05:55.596Z,29.50
2023-08-19T17:08:22.812Z,29.50
2023-08-19T17:10:50.048Z,29.40
2023-08-19T17:13:17.263Z,29.40
2023-08-19T17:15:44.852Z,29.30
2023-08-19T17:18:12.662Z,29.30
2023-08-19T17:20:40.080Z,29.20
2023-08-19T17:23:07.297Z,29.20
2023-08-19T17:25:34.450Z,29.20
2023-08-19T17:28:01.663Z,29.10
2023-08-19T17:30:28.852Z,29.20
2023-08-19T17:32:56.078Z,29.10
2023-08-19T17:35:23.677Z,29.10
2023-08-19T17:37:51.013Z,29.00
2023-08-19T17:40:18.336Z,28.90
2023-08-19T17:42:45.611Z,28.90
2023-08-19T17:45:12.938Z,28.80
2023-08-19T17:47:40.209Z,28.70
2023-08-19T17:50:08.028Z,28.50
2023-08-19T17:52:35.201Z,28.40
2023-08-19T17:55:02.345Z,28.40
2023-08-19T17:57:29.573Z,28.30
2023-08-19T17:59:56.762Z,28.20
2023-08-19T18:02:24.425Z,28.10
2023-08-19T18:04:51.730Z,28.00
2023-08-19T18:07:18.997Z,27.90
2023-08-19T18:09:46.182Z,27.80
2023-08-19T18:12:13.391Z,27.80
2023-08-19T18:14:42.565Z,27.70
2023-08-19T18:17:10.736Z,27.50
2023-08-19T18:19:38.123Z,27.40
2023-08-19T18:22:05.603Z,27.40
2023-08-19T18:24:35.115Z,27.30
2023-08-19T18:27:02.346Z,27.20
2023-08-19T18:29:29.606Z,27.10
2023-08-19T18:31:57.781Z,27.10
2023-08-19T18:34:25.658Z,27.00
2023-08-19T18:36:53.769Z,26.90
2023-08-19T18:39:21.056Z,26.80
2023-08-19T18:41:48.226Z,26.70
2023-08-19T18:44:16.014Z,26.70
2023-08-19T18:46:43.191Z,26.60
2023-08-19T18:49:10.364Z,26.50
2023-08-19T18:51:37.554Z,26.40
2023-08-19T18:54:05.218Z,26.40
2023-08-19T18:56:32.423Z,26.40
2023-08-19T18:59:00.119Z,26.30
2023-08-19T19:01:27.437Z,26.30
2023-08-19T19:03:57.112Z,26.20
2023-08-19T19:06:24.300Z,26.10
2023-08-19T19:08:51.571Z,26.10
2023-08-19T19:11:18.806Z,26.00
2023-08-19T19:13:45.979Z,26.00
2023-08-19T19:16:15.224Z,25.90
2023-08-19T19:18:43.340Z,25.90
2023-08-19T19:21:10.550Z,25.80
2023-08-19T19:23:37.771Z,25.80
2023-08-19T19:26:05.336Z,25.80
2023-08-19T19:28:32.762Z,25.80
2023-08-19T19:30:59.970Z,25.70
2023-08-19T19:33:27.164Z,25.60
2023-08-19T19:35:55.475Z,25.50
2023-08-19T19:38:22.601Z,25.50
2023-08-19T19:40:49.973Z,25.50
2023-08-19T19:43:17.584Z,25.40
2023-08-19T19:45:46.171Z,25.30
2023-08-19T19:48:13.741Z,25.30
2023-08-19T19:50:43.567Z,25.30
2023-08-19T19:53:10.737Z,25.30
2023-08-19T19:55:38.014Z,25.20
2023-08-19T19:58:05.175Z,25.10
2023-08-19T20:00:32.473Z,25.00
2023-08-19T20:03:06.066Z,25.00
2023-08-19T20:05:33.310Z,25.00
2023-08-19T20:08:00.532Z,24.90
2023-08-19T20:10:28.494Z,24.80
2023-08-19T20:12:56.558Z,24.80
2023-08-19T20:15:25.818Z,24.70
2023-08-19T20:17:54.596Z,24.60
2023-08-19T20:20:21.928Z,24.60
2023-08-19T20:22:52.329Z,24.60
2023-08-19T20:25:19.660Z,24.50
2023-08-19T20:27:46.926Z,24.40
2023-08-19T20:30:14.302Z,24.40
2023-08-19T20:32:41.960Z,24.40
2023-08-19T20:35:09.362Z,24.30
2023-08-19T20:37:37.012Z,24.20
2023-08-19T20:40:07.012Z,24.10
2023-08-19T20:42:34.130Z,24.10
2023-08-19T20:45:01.225Z,24.10
2023-08-19T20:47:28.466Z,24.00
2023-08-19T20:49:55.620Z,24.00
2023-08-19T20:52:22.776Z,24.00
2023-08-19T20:54:50.004Z,24.00
2023-08-19T20:57:17.196Z,23.90
2023-08-19T20:59:44.350Z,23.70
2023-08-19T21:02:11.485Z,23.80
2023-08-19T21:04:38.765Z,23.90
2023-08-19T21:07:05.956Z,24.00
2023-08-19T21:09:33.196Z,24.10
2023-08-19T21:12:00.360Z,24.10
2023-08-19T21:14:29.394Z,24.20
2023-08-19T21:16:56.756Z,24.30
2023-08-19T21:19:24.071Z,24.30
2023-08-19T21:21:51.366Z,24.30
2023-08-19T21:24:18.539Z,24.30
2023-08-19T21:26:45.786Z,24.30
2023-08-19T21:29:13.494Z,24.30
2023-08-19T21:31:41.237Z,24.40
2023-08-19T21:34:08.397Z,24.30
2023-08-19T21:36:36.146Z,24.40
2023-08-19T21:39:03.382Z,24.30
2023-08-19T21:41:30.540Z,24.20
2023-08-19T21:43:57.725Z,24.10
2023-08-19T21:46:24.890Z,24.10
2023-08-19T21:48:52.254Z,24.20
2023-08-19T21:51:20.678Z,24.10
2023-08-19T21:53:48.989Z,23.90
2023-08-19T21:56:16.312Z,23.60
2023-08-19T21:58:43.628Z,23.30
2023-08-19T22:01:10.991Z,23.10
2023-08-19T22:03:38.218Z,23.00
2023-08-19T22:06:05.879Z,22.90
2023-08-19T22:08:33.428Z,22.80
2023-08-19T22:11:00.694Z,22.60
2023-08-19T22:13:27.976Z,22.60
2023-08-19T22:15:55.200Z,22.60
2023-08-19T22:18:22.461Z,22.40
2023-08-19T22:20:51.686Z,22.40
2023-08-19T22:23:19.900Z,22.40
2023-08-19T22:25:47.181Z,22.30
2023-08-19T22:28:14.467Z,22.30
2023-08-19T22:30:41.684Z,22.30
2023-08-19T22:33:09.006Z,22.30
2023-08-19T22:35:36.292Z,22.30
2023-08-19T22:38:03.918Z,22.30
2023-08-19T22:40:31.184Z,22.30
2023-08-19T22:42:58.350Z,22.30
2023-08-19T22:45:25.544Z,22.20
2023-08-19T22:47:52.847Z,22.20
2023-08-19T22:50:19.997Z,22.20
2023-08-19T22:52:47.157Z,22.30
2023-08-19T22:55:14.563Z,22.20
2023-08-19T22:57:41.777Z,22.20
2023-08-19T23:00:10.082Z,22.20
2023-08-19T23:02:37.349Z,22.20
2023-08-19T23:05:04.936Z,22.10
2023-08-19T23:07:36.453Z,22.20
2023-08-19T23:10:05.326Z,22.20
2023-08-19T23:12:32.463Z,22.10
2023-08-19T23:14:59.772Z,22.10
2023-08-19T23:17:27.031Z,22.10
2023-08-19T23:19:54.253Z,22.10
2023-08-19T23:22:21.436Z,21.90
2023-08-19T23:24:48.589Z,22.00
2023-08-19T23:27:15.912Z,22.00
2023-08-19T23:29:43.201Z,22.00
2023-08-19T23:32:10.456Z,22.00
2023-08-19T23:34:37.654Z,22.00
2023-08-19T23:37:04.835Z,22.00
2023-08-19T23:39:31.965Z,22.00
2023-08-19T23:41:59.234Z,22.00
2023-08-19T23:44:26.413Z,21.90
2023-08-19T23:46:53.995Z,21.90
2023-08-19T23:49:21.550Z,21.90
2023-08-19T23:51:49.999Z,21.80
2023-08-19T23:54:17.430Z,21.60
2023-08-19T23:56:44.852Z,21.40
2023-08-19T23:59:12.426Z,21.30
